sensor_id;sensor_type;location;lat;lon;timestamp;pressure;altitude;pressure_sealevel;temperature;humidity
20983;BME280;10650;51.528;6.748;2023-02-13T00:00:50;103530.97;;;10.29;74.78
20983;BME280;10650;51.528;6.748;2023-02-13T00:03:18;103533.59;;;10.28;74.48
20983;BME280;10650;51.528;6.748;2023-02-13T00:05:47;103523.75;;;10.27;74.94
20983;BME280;10650;51.528;6.748;2023-02-13T00:08:15;103519.25;;;10.26;74.91
20983;BME280;10650;51.528;6.748;2023-02-13T00:10:42;103528.16;;;10.25;75.10
20983;BME280;10650;51.528;6.748;2023-02-13T00:13:10;103518.34;;;10.25;74.91
20983;BME280;10650;51.528;6.748;2023-02-13T00:15:38;103520.13;;;10.25;74.96
20983;BME280;10650;51.528;6.748;2023-02-13T00:18:06;103517.50;;;10.26;74.88
20983;BME280;10650;51.528;6.748;2023-02-13T00:20:33;103505.00;;;10.25;74.98
20983;BME280;10650;51.528;6.748;2023-02-13T00:23:02;103511.25;;;10.26;74.65
20983;BME280;10650;51.528;6.748;2023-02-13T00:25:30;103511.28;;;10.27;74.92
20983;BME280;10650;51.528;6.748;2023-02-13T00:27:58;103514.91;;;10.28;74.93
20983;BME280;10650;51.528;6.748;2023-02-13T00:30:25;103509.56;;;10.28;75.18
20983;BME280;10650;51.528;6.748;2023-02-13T00:32:53;103513.06;;;10.27;74.68
20983;BME280;10650;51.528;6.748;2023-02-13T00:35:21;103520.25;;;10.28;75.21
20983;BME280;10650;51.528;6.748;2023-02-13T00:37:49;103511.38;;;10.29;75.59
20983;BME280;10650;51.528;6.748;2023-02-13T00:40:18;103506.03;;;10.29;74.89
20983;BME280;10650;51.528;6.748;2023-02-13T00:42:45;103510.41;;;10.27;75.09
20983;BME280;10650;51.528;6.748;2023-02-13T00:45:13;103511.38;;;10.29;74.67
20983;BME280;10650;51.528;6.748;2023-02-13T00:47:41;103514.09;;;10.30;74.72
20983;BME280;10650;51.528;6.748;2023-02-13T00:50:09;103507.81;;;10.30;74.92
20983;BME280;10650;51.528;6.748;2023-02-13T00:52:37;103504.22;;;10.28;75.48
20983;BME280;10650;51.528;6.748;2023-02-13T00:55:05;103510.34;;;10.25;75.04
20983;BME280;10650;51.528;6.748;2023-02-13T00:57:34;103507.72;;;10.27;75.39
20983;BME280;10650;51.528;6.748;2023-02-13T01:00:02;103512.13;;;10.25;75.46
20983;BME280;10650;51.528;6.748;2023-02-13T01:02:30;103515.75;;;10.27;75.04
20983;BME280;10650;51.528;6.748;2023-02-13T01:05:01;103515.75;;;10.27;74.91
20983;BME280;10650;51.528;6.748;2023-02-13T01:07:29;103515.78;;;10.28;75.40
20983;BME280;10650;51.528;6.748;2023-02-13T01:09:56;103517.56;;;10.28;75.49
20983;BME280;10650;51.528;6.748;2023-02-13T01:12:24;103513.13;;;10.28;75.29
20983;BME280;10650;51.528;6.748;2023-02-13T01:14:53;103514.06;;;10.29;75.25
20983;BME280;10650;51.528;6.748;2023-02-13T01:17:21;103516.53;;;10.24;75.04
20983;BME280;10650;51.528;6.748;2023-02-13T01:19:49;103508.50;;;10.24;75.11
20983;BME280;10650;51.528;6.748;2023-02-13T01:22:16;103511.25;;;10.26;75.28
20983;BME280;10650;51.528;6.748;2023-02-13T01:24:44;103504.16;;;10.26;75.13
20983;BME280;10650;51.528;6.748;2023-02-13T01:27:12;103514.84;;;10.26;75.10
20983;BME280;10650;51.528;6.748;2023-02-13T01:29:42;103508.56;;;10.26;75.71
20983;BME280;10650;51.528;6.748;2023-02-13T01:32:11;103505.06;;;10.27;75.35
20983;BME280;10650;51.528;6.748;2023-02-13T01:34:39;103505.00;;;10.25;75.59
20983;BME280;10650;51.528;6.748;2023-02-13T01:37:07;103502.38;;;10.27;75.55
20983;BME280;10650;51.528;6.748;2023-02-13T01:39:34;103500.56;;;10.26;75.69
20983;BME280;10650;51.528;6.748;2023-02-13T01:42:02;103492.53;;;10.26;74.87
20983;BME280;10650;51.528;6.748;2023-02-13T01:44:45;103499.72;;;10.27;75.33
20983;BME280;10650;51.528;6.748;2023-02-13T01:47:19;103500.56;;;10.26;74.95
20983;BME280;10650;51.528;6.748;2023-02-13T01:50:03;103500.56;;;10.26;75.39
20983;BME280;10650;51.528;6.748;2023-02-13T01:52:32;103490.75;;;10.25;75.48
20983;BME280;10650;51.528;6.748;2023-02-13T01:55:02;103496.94;;;10.24;75.57
20983;BME280;10650;51.528;6.748;2023-02-13T01:57:32;103500.44;;;10.22;75.14
20983;BME280;10650;51.528;6.748;2023-02-13T02:00:03;103493.41;;;10.25;75.08
20983;BME280;10650;51.528;6.748;2023-02-13T02:02:37;103493.47;;;10.26;75.44
20983;BME280;10650;51.528;6.748;2023-02-13T02:05:07;103494.38;;;10.27;75.45
20983;BME280;10650;51.528;6.748;2023-02-13T02:07:37;103490.69;;;10.23;75.11
20983;BME280;10650;51.528;6.748;2023-02-13T02:10:09;103486.97;;;10.19;74.51
20983;BME280;10650;51.528;6.748;2023-02-13T02:12:42;103486.94;;;10.18;74.62
20983;BME280;10650;51.528;6.748;2023-02-13T02:15:10;103494.00;;;10.16;74.80
20983;BME280;10650;51.528;6.748;2023-02-13T02:17:40;103484.09;;;10.13;75.14
20983;BME280;10650;51.528;6.748;2023-02-13T02:20:27;103483.16;;;10.13;74.57
20983;BME280;10650;51.528;6.748;2023-02-13T02:26:36;103489.19;;;10.07;74.66
20983;BME280;10650;51.528;6.748;2023-02-13T02:29:17;103489.19;;;10.07;74.34
20983;BME280;10650;51.528;6.748;2023-02-13T02:32:06;103495.41;;;10.06;74.21
20983;BME280;10650;51.528;6.748;2023-02-13T02:34:46;103491.69;;;10.02;74.14
20983;BME280;10650;51.528;6.748;2023-02-13T02:37:28;103482.78;;;10.02;74.43
20983;BME280;10650;51.528;6.748;2023-02-13T02:40:07;103485.28;;;9.97;74.72
20983;BME280;10650;51.528;6.748;2023-02-13T02:42:43;103484.38;;;9.97;74.62
20983;BME280;10650;51.528;6.748;2023-02-13T02:45:21;103488.88;;;9.98;73.98
20983;BME280;10650;51.528;6.748;2023-02-13T02:47:57;103488.91;;;9.99;74.40
20983;BME280;10650;51.528;6.748;2023-02-13T02:50:47;103487.28;;;10.03;74.19
20983;BME280;10650;51.528;6.748;2023-02-13T02:53:27;103489.03;;;10.02;74.07
20983;BME280;10650;51.528;6.748;2023-02-13T02:56:02;103490.81;;;10.02;73.88
20983;BME280;10650;51.528;6.748;2023-02-13T02:58:36;103489.97;;;10.03;74.32
20983;BME280;10650;51.528;6.748;2023-02-13T03:01:24;103498.03;;;10.04;74.45
20983;BME280;10650;51.528;6.748;2023-02-13T03:04:18;103488.13;;;10.02;74.17
20983;BME280;10650;51.528;6.748;2023-02-13T03:07:06;103488.97;;;10.01;74.24
20983;BME280;10650;51.528;6.748;2023-02-13T03:09:42;103487.91;;;9.96;74.31
20983;BME280;10650;51.528;6.748;2023-02-13T03:12:35;103490.59;;;9.96;74.07
20983;BME280;10650;51.528;6.748;2023-02-13T03:15:28;103482.38;;;9.91;74.14
20983;BME280;10650;51.528;6.748;2023-02-13T03:17:56;103484.88;;;9.86;74.36
20983;BME280;10650;51.528;6.748;2023-02-13T03:20:45;103484.72;;;9.82;74.40
20983;BME280;10650;51.528;6.748;2023-02-13T03:23:41;103488.91;;;9.75;74.03
20983;BME280;10650;51.528;6.748;2023-02-13T03:26:33;103494.34;;;9.78;74.19
20983;BME280;10650;51.528;6.748;2023-02-13T03:29:19;103488.63;;;9.67;75.00
20983;BME280;10650;51.528;6.748;2023-02-13T03:32:12;103492.34;;;9.73;74.33
20983;BME280;10650;51.528;6.748;2023-02-13T03:34:47;103500.38;;;9.73;74.93
20983;BME280;10650;51.528;6.748;2023-02-13T03:37:36;103488.84;;;9.74;74.33
20983;BME280;10650;51.528;6.748;2023-02-13T03:40:25;103489.69;;;9.73;74.51
20983;BME280;10650;51.528;6.748;2023-02-13T03:43:01;103497.63;;;9.71;74.47
20983;BME280;10650;51.528;6.748;2023-02-13T03:45:34;103490.50;;;9.70;74.46
20983;BME280;10650;51.528;6.748;2023-02-13T03:48:25;103492.25;;;9.69;74.42
20983;BME280;10650;51.528;6.748;2023-02-13T03:51:14;103501.09;;;9.68;75.08
20983;BME280;10650;51.528;6.748;2023-02-13T03:53:45;103500.06;;;9.65;74.34
20983;BME280;10650;51.528;6.748;2023-02-13T03:56:17;103493.78;;;9.63;75.37
20983;BME280;10650;51.528;6.748;2023-02-13T03:59:04;103505.41;;;9.65;74.60
20983;BME280;10650;51.528;6.748;2023-02-13T04:01:46;103499.13;;;9.63;74.70
20983;BME280;10650;51.528;6.748;2023-02-13T04:04:21;103499.84;;;9.59;74.54
20983;BME280;10650;51.528;6.748;2023-02-13T04:06:52;103498.91;;;9.58;74.92
20983;BME280;10650;51.528;6.748;2023-02-13T04:09:25;103505.19;;;9.59;74.96
20983;BME280;10650;51.528;6.748;2023-02-13T04:11:58;103500.75;;;9.59;74.80
20983;BME280;10650;51.528;6.748;2023-02-13T04:14:35;103496.38;;;9.61;74.90
20983;BME280;10650;51.528;6.748;2023-02-13T04:17:07;103499.13;;;9.63;75.11
20983;BME280;10650;51.528;6.748;2023-02-13T04:19:36;103492.91;;;9.64;74.78
20983;BME280;10650;51.528;6.748;2023-02-13T04:22:04;103492.91;;;9.64;75.14
20983;BME280;10650;51.528;6.748;2023-02-13T04:24:33;103503.59;;;9.64;75.41
20983;BME280;10650;51.528;6.748;2023-02-13T04:27:01;103498.97;;;9.60;75.09
20983;BME280;10650;51.528;6.748;2023-02-13T04:29:28;103505.25;;;9.60;75.28
20983;BME280;10650;51.528;6.748;2023-02-13T04:31:56;103499.84;;;9.59;74.70
20983;BME280;10650;51.528;6.748;2023-02-13T04:34:24;103506.03;;;9.58;74.98
20983;BME280;10650;51.528;6.748;2023-02-13T04:36:51;103503.25;;;9.55;75.17
20983;BME280;10650;51.528;6.748;2023-02-13T04:39:19;103504.13;;;9.55;75.38
20983;BME280;10650;51.528;6.748;2023-02-13T04:41:48;103500.41;;;9.50;75.44
20983;BME280;10650;51.528;6.748;2023-02-13T04:44:16;103496.69;;;9.46;75.44
20983;BME280;10650;51.528;6.748;2023-02-13T04:46:43;103498.47;;;9.46;75.33
20983;BME280;10650;51.528;6.748;2023-02-13T04:49:11;103499.34;;;9.46;75.97
20983;BME280;10650;51.528;6.748;2023-02-13T04:51:39;103495.78;;;9.46;75.48
20983;BME280;10650;51.528;6.748;2023-02-13T04:54:07;103495.91;;;9.49;75.45
20983;BME280;10650;51.528;6.748;2023-02-13T04:56:34;103490.50;;;9.47;75.50
20983;BME280;10650;51.528;6.748;2023-02-13T04:59:03;103481.72;;;9.50;75.91
20983;BME280;10650;51.528;6.748;2023-02-13T05:01:31;103489.78;;;9.51;76.10
20983;BME280;10650;51.528;6.748;2023-02-13T05:03:59;103483.56;;;9.52;75.61
20983;BME280;10650;51.528;6.748;2023-02-13T05:06:26;103481.88;;;9.55;75.81
20983;BME280;10650;51.528;6.748;2023-02-13T05:08:54;103483.56;;;9.52;76.00
20983;BME280;10650;51.528;6.748;2023-02-13T05:11:22;103488.00;;;9.52;75.84
20983;BME280;10650;51.528;6.748;2023-02-13T05:13:49;103490.69;;;9.52;75.54
20983;BME280;10650;51.528;6.748;2023-02-13T05:16:18;103492.50;;;9.53;75.68
20983;BME280;10650;51.528;6.748;2023-02-13T05:18:46;103491.53;;;9.51;75.83
20983;BME280;10650;51.528;6.748;2023-02-13T05:21:14;103488.84;;;9.51;75.85
20983;BME280;10650;51.528;6.748;2023-02-13T05:23:59;103484.38;;;9.50;75.60
20983;BME280;10650;51.528;6.748;2023-02-13T05:26:27;103487.91;;;9.49;75.63
20983;BME280;10650;51.528;6.748;2023-02-13T05:28:54;103487.84;;;9.47;76.22
20983;BME280;10650;51.528;6.748;2023-02-13T05:31:41;103484.19;;;9.45;75.98
20983;BME280;10650;51.528;6.748;2023-02-13T05:34:10;103476.22;;;9.47;75.89
20983;BME280;10650;51.528;6.748;2023-02-13T05:36:38;103476.13;;;9.44;75.76
20983;BME280;10650;51.528;6.748;2023-02-13T05:39:06;103477.00;;;9.43;76.35
20983;BME280;10650;51.528;6.748;2023-02-13T05:41:35;103477.00;;;9.43;76.54
20983;BME280;10650;51.528;6.748;2023-02-13T05:44:03;103473.28;;;9.39;76.61
20983;BME280;10650;51.528;6.748;2023-02-13T05:46:30;103472.22;;;9.35;76.37
20983;BME280;10650;51.528;6.748;2023-02-13T05:49:00;103473.03;;;9.33;76.25
20983;BME280;10650;51.528;6.748;2023-02-13T05:51:30;103467.66;;;9.31;77.14
20983;BME280;10650;51.528;6.748;2023-02-13T05:53:57;103469.44;;;9.32;76.90
20983;BME280;10650;51.528;6.748;2023-02-13T05:56:25;103471.09;;;9.29;76.77
20983;BME280;10650;51.528;6.748;2023-02-13T05:58:54;103474.59;;;9.28;76.87
20983;BME280;10650;51.528;6.748;2023-02-13T06:01:23;103477.16;;;9.25;76.97
20983;BME280;10650;51.528;6.748;2023-02-13T06:03:51;103476.25;;;9.24;77.16
20983;BME280;10650;51.528;6.748;2023-02-13T06:06:20;103474.44;;;9.23;77.44
20983;BME280;10650;51.528;6.748;2023-02-13T06:08:48;103485.09;;;9.23;76.87
20983;BME280;10650;51.528;6.748;2023-02-13T06:11:16;103477.03;;;9.22;76.95
20983;BME280;10650;51.528;6.748;2023-02-13T06:13:43;103478.78;;;9.21;77.18
20983;BME280;10650;51.528;6.748;2023-02-13T06:16:11;103476.91;;;9.18;76.79
20983;BME280;10650;51.528;6.748;2023-02-13T06:18:39;103476.84;;;9.17;76.99
20983;BME280;10650;51.528;6.748;2023-02-13T06:21:07;103467.81;;;9.13;77.24
20983;BME280;10650;51.528;6.748;2023-02-13T06:23:36;103470.34;;;9.10;77.40
20983;BME280;10650;51.528;6.748;2023-02-13T06:26:06;103470.13;;;9.04;77.46
20983;BME280;10650;51.528;6.748;2023-02-13T06:28:34;103473.50;;;9.00;78.02
20983;BME280;10650;51.528;6.748;2023-02-13T06:31:02;103468.88;;;8.96;77.50
20983;BME280;10650;51.528;6.748;2023-02-13T06:33:30;103470.38;;;8.89;77.61
20983;BME280;10650;51.528;6.748;2023-02-13T06:35:58;103473.69;;;8.83;77.87
20983;BME280;10650;51.528;6.748;2023-02-13T06:38:26;103465.50;;;8.79;78.00
20983;BME280;10650;51.528;6.748;2023-02-13T06:40:58;103471.56;;;8.75;77.76
20983;BME280;10650;51.528;6.748;2023-02-13T06:43:27;103480.31;;;8.72;78.31
20983;BME280;10650;51.528;6.748;2023-02-13T06:45:55;103468.53;;;8.65;78.12
20983;BME280;10650;51.528;6.748;2023-02-13T06:48:23;103476.16;;;8.58;78.31
20983;BME280;10650;51.528;6.748;2023-02-13T06:50:50;103477.81;;;8.54;78.88
20983;BME280;10650;51.528;6.748;2023-02-13T06:53:18;103472.41;;;8.53;79.20
20983;BME280;10650;51.528;6.748;2023-02-13T06:55:50;103478.38;;;8.47;78.92
20983;BME280;10650;51.528;6.748;2023-02-13T06:58:21;103476.56;;;8.46;78.99
20983;BME280;10650;51.528;6.748;2023-02-13T07:00:50;103470.13;;;8.42;79.45
20983;BME280;10650;51.528;6.748;2023-02-13T07:03:19;103487.00;;;8.41;79.37
20983;BME280;10650;51.528;6.748;2023-02-13T07:05:46;103484.97;;;8.36;79.03
20983;BME280;10650;51.528;6.748;2023-02-13T07:08:17;103482.09;;;8.31;79.58
20983;BME280;10650;51.528;6.748;2023-02-13T07:10:45;103479.28;;;8.28;79.90
20983;BME280;10650;51.528;6.748;2023-02-13T07:13:13;103487.13;;;8.25;80.07
20983;BME280;10650;51.528;6.748;2023-02-13T07:15:42;103486.16;;;8.23;80.04
20983;BME280;10650;51.528;6.748;2023-02-13T07:18:10;103486.09;;;8.21;79.96
20983;BME280;10650;51.528;6.748;2023-02-13T07:20:38;103488.91;;;8.24;80.32
20983;BME280;10650;51.528;6.748;2023-02-13T07:23:05;103490.66;;;8.24;80.22
20983;BME280;10650;51.528;6.748;2023-02-13T07:25:33;103490.72;;;8.25;80.47
20983;BME280;10650;51.528;6.748;2023-02-13T07:28:03;103500.50;;;8.26;80.18
20983;BME280;10650;51.528;6.748;2023-02-13T07:30:32;103498.72;;;8.25;80.21
20983;BME280;10650;51.528;6.748;2023-02-13T07:33:03;103499.63;;;8.26;80.54
20983;BME280;10650;51.528;6.748;2023-02-13T07:35:31;103493.53;;;8.28;80.78
20983;BME280;10650;51.528;6.748;2023-02-13T07:37:59;103504.25;;;8.30;80.26
20983;BME280;10650;51.528;6.748;2023-02-13T07:40:27;103505.22;;;8.32;80.16
20983;BME280;10650;51.528;6.748;2023-02-13T07:42:55;103500.88;;;8.34;80.23
20983;BME280;10650;51.528;6.748;2023-02-13T07:45:22;103510.72;;;8.37;80.30
20983;BME280;10650;51.528;6.748;2023-02-13T07:47:50;103509.00;;;8.37;80.67
20983;BME280;10650;51.528;6.748;2023-02-13T07:50:19;103515.28;;;8.39;80.45
20983;BME280;10650;51.528;6.748;2023-02-13T07:52:52;103517.34;;;8.45;80.47
20983;BME280;10650;51.528;6.748;2023-02-13T07:55:20;103517.53;;;8.49;80.38
20983;BME280;10650;51.528;6.748;2023-02-13T07:57:48;103519.50;;;8.54;80.28
20983;BME280;10650;51.528;6.748;2023-02-13T08:00:17;103520.50;;;8.56;79.91
20983;BME280;10650;51.528;6.748;2023-02-13T08:02:45;103515.31;;;8.59;79.85
20983;BME280;10650;51.528;6.748;2023-02-13T08:05:13;103517.13;;;8.60;79.90
20983;BME280;10650;51.528;6.748;2023-02-13T08:07:42;103520.00;;;8.64;79.74
20983;BME280;10650;51.528;6.748;2023-02-13T08:10:11;103525.44;;;8.68;79.69
20983;BME280;10650;51.528;6.748;2023-02-13T08:12:57;103520.38;;;8.74;79.05
20983;BME280;10650;51.528;6.748;2023-02-13T08:15:25;103516.88;;;8.75;79.45
20983;BME280;10650;51.528;6.748;2023-02-13T08:17:53;103510.88;;;8.80;79.16
20983;BME280;10650;51.528;6.748;2023-02-13T08:20:20;103520.84;;;8.85;79.39
20983;BME280;10650;51.528;6.748;2023-02-13T08:22:51;103520.97;;;8.88;79.27
20983;BME280;10650;51.528;6.748;2023-02-13T08:25:19;103518.38;;;8.89;79.00
20983;BME280;10650;51.528;6.748;2023-02-13T08:27:46;103511.38;;;8.91;78.57
20983;BME280;10650;51.528;6.748;2023-02-13T08:30:14;103522.03;;;8.91;78.57
20983;BME280;10650;51.528;6.748;2023-02-13T08:32:42;103522.22;;;8.96;78.31
20983;BME280;10650;51.528;6.748;2023-02-13T08:35:19;103519.59;;;8.97;78.20
20983;BME280;10650;51.528;6.748;2023-02-13T08:37:48;103522.34;;;8.99;77.98
20983;BME280;10650;51.528;6.748;2023-02-13T08:40:17;103526.97;;;9.03;78.15
20983;BME280;10650;51.528;6.748;2023-02-13T08:42:45;103528.91;;;9.07;78.24
20983;BME280;10650;51.528;6.748;2023-02-13T08:45:13;103527.31;;;9.12;78.29
20983;BME280;10650;51.528;6.748;2023-02-13T08:47:40;103522.22;;;9.17;77.89
20983;BME280;10650;51.528;6.748;2023-02-13T08:50:09;103528.56;;;9.21;77.62
20983;BME280;10650;51.528;6.748;2023-02-13T08:52:36;103519.72;;;9.22;77.27
20983;BME280;10650;51.528;6.748;2023-02-13T08:55:05;103526.06;;;9.25;77.39
20983;BME280;10650;51.528;6.748;2023-02-13T08:57:34;103520.03;;;9.29;76.95
20983;BME280;10650;51.528;6.748;2023-02-13T09:00:02;103520.19;;;9.34;76.64
20983;BME280;10650;51.528;6.748;2023-02-13T09:02:31;103526.59;;;9.38;77.22
20983;BME280;10650;51.528;6.748;2023-02-13T09:04:59;103523.97;;;9.39;76.54
20983;BME280;10650;51.528;6.748;2023-02-13T09:07:26;103524.09;;;9.42;76.17
20983;BME280;10650;51.528;6.748;2023-02-13T09:09:54;103521.53;;;9.45;76.34
20983;BME280;10650;51.528;6.748;2023-02-13T09:12:22;103527.00;;;9.48;76.21
20983;BME280;10650;51.528;6.748;2023-02-13T09:14:51;103529.81;;;9.51;76.42
20983;BME280;10650;51.528;6.748;2023-02-13T09:17:19;103519.31;;;9.56;75.58
20983;BME280;10650;51.528;6.748;2023-02-13T09:19:46;103523.06;;;9.61;75.82
20983;BME280;10650;51.528;6.748;2023-02-13T09:22:14;103516.88;;;9.62;75.40
20983;BME280;10650;51.528;6.748;2023-02-13T09:24:42;103520.47;;;9.63;75.51
20983;BME280;10650;51.528;6.748;2023-02-13T09:27:10;103522.38;;;9.67;75.43
20983;BME280;10650;51.528;6.748;2023-02-13T09:29:38;103523.44;;;9.70;75.41
20983;BME280;10650;51.528;6.748;2023-02-13T09:32:07;103527.22;;;9.76;75.21
20983;BME280;10650;51.528;6.748;2023-02-13T09:34:35;103524.53;;;9.76;74.38
20983;BME280;10650;51.528;6.748;2023-02-13T09:37:03;103525.56;;;9.79;74.96
20983;BME280;10650;51.528;6.748;2023-02-13T09:39:31;103519.41;;;9.82;74.46
20983;BME280;10650;51.528;6.748;2023-02-13T09:41:59;103519.66;;;9.88;74.53
20983;BME280;10650;51.528;6.748;2023-02-13T09:44:32;103529.53;;;9.91;74.36
20983;BME280;10650;51.528;6.748;2023-02-13T09:47:04;103524.38;;;9.95;74.46
20983;BME280;10650;51.528;6.748;2023-02-13T09:49:37;103519.19;;;10.00;73.90
20983;BME280;10650;51.528;6.748;2023-02-13T09:52:08;103526.53;;;10.05;73.85
20983;BME280;10650;51.528;6.748;2023-02-13T09:54:37;103526.59;;;10.07;73.99
20983;BME280;10650;51.528;6.748;2023-02-13T09:57:13;103529.56;;;10.15;73.46
20983;BME280;10650;51.528;6.748;2023-02-13T09:59:53;103526.16;;;10.19;73.19
20983;BME280;10650;51.528;6.748;2023-02-13T10:02:41;103523.53;;;10.20;73.19
20983;BME280;10650;51.528;6.748;2023-02-13T10:05:39;103524.50;;;10.22;73.22
20983;BME280;10650;51.528;6.748;2023-02-13T10:08:18;103526.28;;;10.22;72.49
20983;BME280;10650;51.528;6.748;2023-02-13T10:10:51;103518.47;;;10.28;72.36
20983;BME280;10650;51.528;6.748;2023-02-13T10:13:30;103517.72;;;10.32;72.45
20983;BME280;10650;51.528;6.748;2023-02-13T10:16:08;103521.56;;;10.39;72.39
20983;BME280;10650;51.528;6.748;2023-02-13T10:18:42;103519.13;;;10.45;71.81
20983;BME280;10650;51.528;6.748;2023-02-13T10:21:13;103517.38;;;10.47;71.75
20983;BME280;10650;51.528;6.748;2023-02-13T10:23:48;103517.63;;;10.53;72.04
20983;BME280;10650;51.528;6.748;2023-02-13T10:26:20;103523.13;;;10.58;71.85
20983;BME280;10650;51.528;6.748;2023-02-13T10:28:53;103526.91;;;10.63;71.54
20983;BME280;10650;51.528;6.748;2023-02-13T10:31:38;103518.09;;;10.67;71.29
20983;BME280;10650;51.528;6.748;2023-02-13T10:34:11;103522.69;;;10.71;71.37
20983;BME280;10650;51.528;6.748;2023-02-13T10:36:45;103517.41;;;10.73;70.67
20983;BME280;10650;51.528;6.748;2023-02-13T10:39:21;103515.75;;;10.77;71.13
20983;BME280;10650;51.528;6.748;2023-02-13T10:41:51;103515.09;;;10.84;71.36
20983;BME280;10650;51.528;6.748;2023-02-13T10:44:30;103516.34;;;10.94;70.39
20983;BME280;10650;51.528;6.748;2023-02-13T10:47:10;103519.06;;;10.95;70.60
20983;BME280;10650;51.528;6.748;2023-02-13T10:50:02;103517.56;;;11.03;70.24
20983;BME280;10650;51.528;6.748;2023-02-13T10:52:45;103522.97;;;11.05;69.96
20983;BME280;10650;51.528;6.748;2023-02-13T10:55:59;103512.25;;;11.05;70.13
20983;BME280;10650;51.528;6.748;2023-02-13T10:58:41;103511.50;;;11.09;69.41
20983;BME280;10650;51.528;6.748;2023-02-13T11:01:18;103501.84;;;11.14;70.07
20983;BME280;10650;51.528;6.748;2023-02-13T11:04:04;103502.91;;;11.19;69.15
20983;BME280;10650;51.528;6.748;2023-02-13T11:06:34;103499.47;;;11.23;68.99
20983;BME280;10650;51.528;6.748;2023-02-13T11:09:05;103498.63;;;11.26;69.10
20983;BME280;10650;51.528;6.748;2023-02-13T11:11:36;103491.59;;;11.28;68.53
20983;BME280;10650;51.528;6.748;2023-02-13T11:14:13;103486.38;;;11.33;68.78
20983;BME280;10650;51.528;6.748;2023-02-13T11:16:52;103484.59;;;11.33;68.10
20983;BME280;10650;51.528;6.748;2023-02-13T11:19:24;103483.75;;;11.34;68.47
20983;BME280;10650;51.528;6.748;2023-02-13T11:21:53;103478.69;;;11.43;68.18
20983;BME280;10650;51.528;6.748;2023-02-13T11:24:25;103475.25;;;11.48;68.42
20983;BME280;10650;51.528;6.748;2023-02-13T11:26:58;103472.66;;;11.51;68.46
20983;BME280;10650;51.528;6.748;2023-02-13T11:29:28;103470.88;;;11.51;67.79
20983;BME280;10650;51.528;6.748;2023-02-13T11:32:02;103470.06;;;11.54;67.77
20983;BME280;10650;51.528;6.748;2023-02-13T11:34:33;103462.13;;;11.57;67.52
20983;BME280;10650;51.528;6.748;2023-02-13T11:37:15;103462.34;;;11.65;67.61
20983;BME280;10650;51.528;6.748;2023-02-13T11:39:46;103457.16;;;11.69;66.98
20983;BME280;10650;51.528;6.748;2023-02-13T11:42:21;103459.00;;;11.72;67.05
20983;BME280;10650;51.528;6.748;2023-02-13T11:44:53;103460.94;;;11.77;67.23
20983;BME280;10650;51.528;6.748;2023-02-13T11:47:37;103443.16;;;11.80;66.54
20983;BME280;10650;51.528;6.748;2023-02-13T11:50:19;103439.72;;;11.84;66.89
20983;BME280;10650;51.528;6.748;2023-02-13T11:52:58;103442.66;;;11.93;67.14
20983;BME280;10650;51.528;6.748;2023-02-13T11:55:31;103441.91;;;11.97;66.50
20983;BME280;10650;51.528;6.748;2023-02-13T11:58:03;103435.72;;;12.00;66.02
20983;BME280;10650;51.528;6.748;2023-02-13T12:00:33;103432.25;;;12.02;65.52
20983;BME280;10650;51.528;6.748;2023-02-13T12:03:24;103431.59;;;12.11;66.21
20983;BME280;10650;51.528;6.748;2023-02-13T12:06:03;103430.88;;;12.18;65.75
20983;BME280;10650;51.528;6.748;2023-02-13T12:08:33;103426.41;;;12.19;65.67
20983;BME280;10650;51.528;6.748;2023-02-13T12:11:18;103429.22;;;12.23;65.38
20983;BME280;10650;51.528;6.748;2023-02-13T12:13:48;103426.53;;;12.23;65.06
20983;BME280;10650;51.528;6.748;2023-02-13T12:16:22;103428.44;;;12.27;65.50
20983;BME280;10650;51.528;6.748;2023-02-13T12:18:53;103426.75;;;12.31;65.16
20983;BME280;10650;51.528;6.748;2023-02-13T12:21:35;103418.88;;;12.37;64.67
20983;BME280;10650;51.528;6.748;2023-02-13T12:24:13;103413.53;;;12.39;64.33
20983;BME280;10650;51.528;6.748;2023-02-13T12:26:46;103415.44;;;12.43;64.39
20983;BME280;10650;51.528;6.748;2023-02-13T12:29:31;103409.28;;;12.47;63.92
20983;BME280;10650;51.528;6.748;2023-02-13T12:32:09;103408.47;;;12.50;64.01
20983;BME280;10650;51.528;6.748;2023-02-13T12:35:03;103411.34;;;12.57;64.27
20983;BME280;10650;51.528;6.748;2023-02-13T12:37:56;103405.13;;;12.58;63.59
20983;BME280;10650;51.528;6.748;2023-02-13T12:40:37;103398.03;;;12.62;63.49
20983;BME280;10650;51.528;6.748;2023-02-13T12:43:27;103398.06;;;12.63;63.01
20983;BME280;10650;51.528;6.748;2023-02-13T12:45:59;103387.44;;;12.67;63.37
20983;BME280;10650;51.528;6.748;2023-02-13T12:48:38;103376.84;;;12.73;63.23
20983;BME280;10650;51.528;6.748;2023-02-13T12:51:19;103386.81;;;12.78;62.89
20983;BME280;10650;51.528;6.748;2023-02-13T12:54:14;103375.13;;;12.76;62.17
20983;BME280;10650;51.528;6.748;2023-02-13T12:57:06;103368.97;;;12.80;62.64
20983;BME280;10650;51.528;6.748;2023-02-13T12:59:48;103376.28;;;12.88;62.49
20983;BME280;10650;51.528;6.748;2023-02-13T13:02:46;103361.09;;;12.87;61.65
20983;BME280;10650;51.528;6.748;2023-02-13T13:05:35;103362.06;;;12.90;61.89
20983;BME280;10650;51.528;6.748;2023-02-13T13:08:19;103357.72;;;12.95;61.41
20983;BME280;10650;51.528;6.748;2023-02-13T13:11:00;103358.66;;;12.99;61.53
20983;BME280;10650;51.528;6.748;2023-02-13T13:13:38;103361.41;;;13.02;61.61
20983;BME280;10650;51.528;6.748;2023-02-13T13:16:18;103360.63;;;13.06;61.72
20983;BME280;10650;51.528;6.748;2023-02-13T13:18:57;103356.28;;;13.11;61.58
20983;BME280;10650;51.528;6.748;2023-02-13T13:21:36;103359.03;;;13.14;61.33
20983;BME280;10650;51.528;6.748;2023-02-13T13:24:12;103354.56;;;13.16;61.07
20983;BME280;10650;51.528;6.748;2023-02-13T13:26:45;103353.72;;;13.18;60.86
20983;BME280;10650;51.528;6.748;2023-02-13T13:29:18;103343.97;;;13.21;60.65